AAL7 KDFW-PHOG
Flight info
| Callsign | AAL7 |
|---|---|
| Flight time | N/A |
| Altitude | 38000 |
| Route | WSTEX2 CIKAN DCT INK DCT WIPPO DCT ILAMA/N0482F360 DCT HMO DCT 26N120W 25N125W DCT AMATT DCT 22N135W/N0482F380 21N140W 20N145W DCT SAYTO DCT SCOON LAVAS1 |
| Aircraft | B772/H-SDE2E3FGHIJ5LORVWXY/LB1D1 |
Departure
| Time | N/A |
|---|---|
| Airport | Dallas Fort Worth International Airport (KDFW) |
Arrival
| Time | 2026-04-16 04:25 |
|---|---|
| Airport | Kahului International Airport (PHOG) |
| Time | Latitude | Longitude | Altitude | Speed | Heading |
|---|---|---|---|---|---|
| 2026-04-16 03:14 | 20.48819 | -149.01184 | 38057 ft | 413 kts | 276° |
| 2026-04-16 03:14 | 20.49149 | -149.04178 | 38063 ft | 408 kts | 276° |
| 2026-04-16 03:15 | 20.49802 | -149.10126 | 38059 ft | 399 kts | 276° |
| 2026-04-16 03:15 | 20.50439 | -149.15948 | 38062 ft | 390 kts | 276° |
| 2026-04-16 03:16 | 20.51055 | -149.21606 | 38060 ft | 382 kts | 276° |
| 2026-04-16 03:16 | 20.51662 | -149.27196 | 38062 ft | 374 kts | 276° |
| 2026-04-16 03:17 | 20.52249 | -149.32627 | 38064 ft | 367 kts | 276° |
| 2026-04-16 03:17 | 20.52827 | -149.37983 | 38060 ft | 359 kts | 276° |
| 2026-04-16 03:18 | 20.53392 | -149.43235 | 38062 ft | 352 kts | 276° |
| 2026-04-16 03:18 | 20.53943 | -149.48368 | 38059 ft | 344 kts | 276° |
| 2026-04-16 03:19 | 20.54476 | -149.53349 | 38067 ft | 339 kts | 275° |
| 2026-04-16 03:19 | 20.55024 | -149.58489 | 38097 ft | 357 kts | 275° |
| 2026-04-16 03:20 | 20.55596 | -149.63876 | 38091 ft | 376 kts | 276° |
| 2026-04-16 03:20 | 20.56198 | -149.69558 | 38088 ft | 395 kts | 276° |
| 2026-04-16 03:21 | 20.56829 | -149.75521 | 38095 ft | 412 kts | 276° |
| 2026-04-16 03:21 | 20.57479 | -149.81692 | 38091 ft | 428 kts | 276° |
| 2026-04-16 03:22 | 20.58154 | -149.88122 | 38088 ft | 440 kts | 276° |
| 2026-04-16 03:22 | 20.58835 | -149.94621 | 38076 ft | 445 kts | 275° |
| 2026-04-16 03:23 | 20.59522 | -150.01201 | 38070 ft | 446 kts | 275° |
| 2026-04-16 03:23 | 20.60205 | -150.07778 | 38068 ft | 443 kts | 275° |
| 2026-04-16 03:24 | 20.60876 | -150.14261 | 38070 ft | 440 kts | 275° |
| 2026-04-16 03:24 | 20.61543 | -150.20731 | 38079 ft | 436 kts | 275° |
| 2026-04-16 03:25 | 20.62204 | -150.27170 | 38071 ft | 434 kts | 275° |
| 2026-04-16 03:25 | 20.62854 | -150.33522 | 38074 ft | 434 kts | 275° |
| 2026-04-16 03:26 | 20.63508 | -150.39935 | 38078 ft | 435 kts | 275° |
| 2026-04-16 03:26 | 20.64164 | -150.46399 | 38078 ft | 437 kts | 275° |
| 2026-04-16 03:27 | 20.64815 | -150.52830 | 38079 ft | 437 kts | 275° |
| 2026-04-16 03:27 | 20.65467 | -150.59299 | 38074 ft | 437 kts | 275° |
| 2026-04-16 03:28 | 20.66113 | -150.65727 | 38078 ft | 437 kts | 275° |
| 2026-04-16 03:28 | 20.66758 | -150.72179 | 38078 ft | 436 kts | 275° |
| 2026-04-16 03:29 | 20.67398 | -150.78594 | 38082 ft | 435 kts | 274° |
| 2026-04-16 03:29 | 20.68036 | -150.85023 | 38077 ft | 433 kts | 274° |
| 2026-04-16 03:30 | 20.68666 | -150.91384 | 38078 ft | 432 kts | 274° |
| 2026-04-16 03:30 | 20.69216 | -150.97779 | 38075 ft | 431 kts | 269° |
| 2026-04-16 03:31 | 20.68570 | -151.04122 | 38086 ft | 430 kts | 259° |
| 2026-04-16 03:31 | 20.66835 | -151.10181 | 38085 ft | 429 kts | 250° |
| 2026-04-16 03:32 | 20.64661 | -151.16125 | 38075 ft | 429 kts | 250° |
| 2026-04-16 03:34 | 20.56431 | -151.38846 | 38080 ft | 428 kts | 250° |
| 2026-04-16 03:34 | 20.53942 | -151.45753 | 38061 ft | 429 kts | 250° |
| 2026-04-16 03:35 | 20.52143 | -151.50737 | 38073 ft | 430 kts | 250° |
| 2026-04-16 03:35 | 20.49993 | -151.56688 | 38079 ft | 432 kts | 250° |
| 2026-04-16 03:36 | 20.47824 | -151.62684 | 38078 ft | 433 kts | 250° |
| 2026-04-16 03:36 | 20.45661 | -151.68655 | 38076 ft | 434 kts | 250° |
| 2026-04-16 03:37 | 20.43491 | -151.74636 | 38076 ft | 433 kts | 250° |
| 2026-04-16 03:37 | 20.41309 | -151.80646 | 38075 ft | 433 kts | 250° |
| 2026-04-16 03:38 | 20.39144 | -151.86602 | 38077 ft | 432 kts | 250° |
| 2026-04-16 03:38 | 20.36969 | -151.92578 | 38080 ft | 432 kts | 249° |
| 2026-04-16 03:39 | 20.34794 | -151.98544 | 38073 ft | 430 kts | 249° |
| 2026-04-16 03:39 | 20.32630 | -152.04475 | 38071 ft | 431 kts | 249° |
| 2026-04-16 03:40 | 20.30448 | -152.10450 | 38073 ft | 432 kts | 249° |
| 2026-04-16 03:40 | 20.28273 | -152.16401 | 38073 ft | 434 kts | 249° |
| 2026-04-16 03:41 | 20.26137 | -152.22423 | 38067 ft | 433 kts | 255° |
| 2026-04-16 03:41 | 20.25649 | -152.25591 | 38075 ft | 434 kts | 267° |
| 2026-04-16 03:41 | 20.25843 | -152.28754 | 38079 ft | 432 kts | 273° |
| 2026-04-16 03:42 | 20.26375 | -152.35161 | 38072 ft | 433 kts | 272° |
| 2026-04-16 03:42 | 20.26830 | -152.41523 | 38076 ft | 433 kts | 272° |
| 2026-04-16 03:43 | 20.27266 | -152.47931 | 38071 ft | 434 kts | 271° |
| 2026-04-16 03:43 | 20.27699 | -152.54347 | 38076 ft | 433 kts | 271° |
| 2026-04-16 03:44 | 20.28126 | -152.60712 | 38070 ft | 433 kts | 271° |
| 2026-04-16 03:44 | 20.28555 | -152.67106 | 38072 ft | 432 kts | 271° |
| 2026-04-16 03:45 | 20.28982 | -152.73517 | 38073 ft | 432 kts | 271° |
| 2026-04-16 03:45 | 20.29405 | -152.79901 | 38074 ft | 432 kts | 271° |
| 2026-04-16 03:46 | 20.29825 | -152.86266 | 38075 ft | 432 kts | 271° |
| 2026-04-16 03:46 | 20.30244 | -152.92670 | 38069 ft | 433 kts | 271° |
| 2026-04-16 03:47 | 20.30659 | -152.99027 | 38069 ft | 433 kts | 271° |
| 2026-04-16 03:47 | 20.31075 | -153.05446 | 38073 ft | 433 kts | 271° |
| 2026-04-16 03:48 | 20.31489 | -153.11867 | 38069 ft | 434 kts | 271° |
| 2026-04-16 03:48 | 20.31897 | -153.18243 | 38071 ft | 434 kts | 271° |
| 2026-04-16 03:49 | 20.32308 | -153.24691 | 38072 ft | 435 kts | 271° |
| 2026-04-16 03:49 | 20.32713 | -153.31086 | 38069 ft | 435 kts | 271° |
| 2026-04-16 03:50 | 20.33119 | -153.37522 | 38073 ft | 435 kts | 271° |
| 2026-04-16 03:50 | 20.33520 | -153.43925 | 38085 ft | 435 kts | 271° |
| 2026-04-16 03:51 | 20.33920 | -153.50357 | 38075 ft | 435 kts | 271° |
| 2026-04-16 03:51 | 20.34318 | -153.56787 | 38069 ft | 434 kts | 270° |
| 2026-04-16 03:52 | 20.34714 | -153.63215 | 38074 ft | 434 kts | 270° |
| 2026-04-16 03:52 | 20.35105 | -153.69618 | 38067 ft | 434 kts | 270° |
| 2026-04-16 03:53 | 20.35496 | -153.76054 | 38075 ft | 434 kts | 270° |
| 2026-04-16 03:53 | 20.35882 | -153.82440 | 38075 ft | 433 kts | 270° |
| 2026-04-16 03:54 | 20.36267 | -153.88851 | 38071 ft | 433 kts | 270° |
| 2026-04-16 03:54 | 20.36648 | -153.95235 | 38059 ft | 435 kts | 270° |
| 2026-04-16 03:55 | 20.37030 | -154.01696 | 38076 ft | 437 kts | 270° |
| 2026-04-16 03:55 | 20.37412 | -154.08177 | 38072 ft | 438 kts | 270° |
| 2026-04-16 03:56 | 20.37791 | -154.14635 | 38071 ft | 439 kts | 270° |
| 2026-04-16 03:56 | 20.38169 | -154.21138 | 38063 ft | 439 kts | 270° |
| 2026-04-16 03:57 | 20.38546 | -154.27642 | 38072 ft | 438 kts | 270° |
| 2026-04-16 03:57 | 20.38916 | -154.34076 | 38074 ft | 437 kts | 270° |
| 2026-04-16 03:58 | 20.39285 | -154.40551 | 38072 ft | 436 kts | 270° |
| 2026-04-16 03:58 | 20.39651 | -154.46997 | 38069 ft | 434 kts | 269° |
| 2026-04-16 03:59 | 20.40011 | -154.53391 | 38068 ft | 433 kts | 269° |
| 2026-04-16 03:59 | 20.40370 | -154.59803 | 38073 ft | 433 kts | 269° |
| 2026-04-16 04:00 | 20.40726 | -154.66213 | 38065 ft | 433 kts | 269° |
| 2026-04-16 04:00 | 20.41078 | -154.72588 | 38069 ft | 433 kts | 269° |
| 2026-04-16 04:01 | 20.41431 | -154.79017 | 38068 ft | 434 kts | 269° |
| 2026-04-16 04:01 | 20.41782 | -154.85463 | 38074 ft | 434 kts | 269° |
| 2026-04-16 04:02 | 20.42131 | -154.91865 | 38065 ft | 435 kts | 269° |
| 2026-04-16 04:02 | 20.42482 | -154.98311 | 38079 ft | 435 kts | 269° |
| 2026-04-16 04:02 | 20.42657 | -155.01547 | 37587 ft | 440 kts | 269° |
| 2026-04-16 04:03 | 20.42830 | -155.04778 | 36892 ft | 441 kts | 269° |
| 2026-04-16 04:03 | 20.43006 | -155.08042 | 36124 ft | 439 kts | 270° |
| 2026-04-16 04:03 | 20.43182 | -155.11306 | 35283 ft | 440 kts | 270° |
| 2026-04-16 04:03 | 20.43357 | -155.14580 | 34372 ft | 442 kts | 270° |
| 2026-04-16 04:04 | 20.43530 | -155.17827 | 33376 ft | 444 kts | 271° |
| 2026-04-16 04:04 | 20.43705 | -155.21131 | 32366 ft | 446 kts | 271° |
| 2026-04-16 04:04 | 20.43882 | -155.24457 | 31342 ft | 449 kts | 271° |
| 2026-04-16 04:04 | 20.44055 | -155.27752 | 30525 ft | 449 kts | 271° |
| 2026-04-16 04:05 | 20.44231 | -155.31085 | 29684 ft | 449 kts | 271° |
| 2026-04-16 04:05 | 20.44406 | -155.34408 | 28803 ft | 448 kts | 271° |
| 2026-04-16 04:05 | 20.44579 | -155.37725 | 27991 ft | 446 kts | 271° |
| 2026-04-16 04:05 | 20.44752 | -155.41035 | 27212 ft | 445 kts | 271° |
| 2026-04-16 04:06 | 20.44920 | -155.44285 | 26420 ft | 443 kts | 271° |
| 2026-04-16 04:06 | 20.45089 | -155.47568 | 25672 ft | 442 kts | 270° |
| 2026-04-16 04:06 | 20.45258 | -155.50842 | 24904 ft | 442 kts | 270° |
| 2026-04-16 04:06 | 20.45425 | -155.54118 | 24124 ft | 442 kts | 270° |
| 2026-04-16 04:07 | 20.45591 | -155.57388 | 23293 ft | 442 kts | 270° |
| 2026-04-16 04:07 | 20.45922 | -155.63916 | 21658 ft | 437 kts | 271° |
| 2026-04-16 04:07 | 20.46082 | -155.67077 | 20963 ft | 422 kts | 271° |
| 2026-04-16 04:08 | 20.46239 | -155.70134 | 20207 ft | 402 kts | 270° |
| 2026-04-16 04:08 | 20.46387 | -155.73048 | 19523 ft | 385 kts | 270° |
| 2026-04-16 04:08 | 20.46527 | -155.75853 | 18870 ft | 374 kts | 270° |
| 2026-04-16 04:08 | 20.46663 | -155.78664 | 18219 ft | 385 kts | 270° |
| 2026-04-16 04:09 | 20.46801 | -155.81524 | 17485 ft | 391 kts | 271° |
| 2026-04-16 04:09 | 20.46943 | -155.84387 | 17247 ft | 378 kts | 271° |
| 2026-04-16 04:09 | 20.47081 | -155.87143 | 17055 ft | 365 kts | 271° |
| 2026-04-16 04:09 | 20.47213 | -155.89807 | 16881 ft | 353 kts | 271° |
| 2026-04-16 04:10 | 20.47323 | -155.92344 | 16372 ft | 339 kts | 270° |
| 2026-04-16 04:10 | 20.47414 | -155.94808 | 15919 ft | 324 kts | 270° |
| 2026-04-16 04:10 | 20.47497 | -155.97175 | 15476 ft | 315 kts | 270° |
| 2026-04-16 04:10 | 20.47577 | -155.99511 | 15061 ft | 320 kts | 270° |
| 2026-04-16 04:11 | 20.47660 | -156.01957 | 14624 ft | 338 kts | 270° |
| 2026-04-16 04:11 | 20.47747 | -156.04495 | 14137 ft | 344 kts | 271° |
| 2026-04-16 04:11 | 20.47836 | -156.07018 | 13627 ft | 344 kts | 271° |
| 2026-04-16 04:11 | 20.47928 | -156.09558 | 13148 ft | 339 kts | 271° |
| 2026-04-16 04:12 | 20.48017 | -156.12020 | 12647 ft | 324 kts | 271° |
| 2026-04-16 04:12 | 20.48102 | -156.14368 | 12198 ft | 309 kts | 271° |
| 2026-04-16 04:12 | 20.48183 | -156.16631 | 11779 ft | 305 kts | 271° |
| 2026-04-16 04:12 | 20.48262 | -156.18915 | 11359 ft | 311 kts | 271° |
| 2026-04-16 04:13 | 20.48343 | -156.21222 | 10933 ft | 317 kts | 271° |
| 2026-04-16 04:13 | 20.48425 | -156.23575 | 10546 ft | 315 kts | 271° |
| 2026-04-16 04:13 | 20.48506 | -156.25883 | 10357 ft | 305 kts | 271° |
| 2026-04-16 04:13 | 20.48583 | -156.28078 | 10232 ft | 291 kts | 271° |
| 2026-04-16 04:14 | 20.48656 | -156.30158 | 10097 ft | 270 kts | 271° |
| 2026-04-16 04:14 | 20.48723 | -156.32097 | 9941 ft | 253 kts | 271° |
| 2026-04-16 04:14 | 20.48787 | -156.33961 | 9644 ft | 251 kts | 271° |
| 2026-04-16 04:14 | 20.48851 | -156.35869 | 9380 ft | 265 kts | 271° |
| 2026-04-16 04:15 | 20.48918 | -156.37866 | 9058 ft | 271 kts | 271° |
| 2026-04-16 04:15 | 20.48989 | -156.39882 | 8717 ft | 269 kts | 274° |
| 2026-04-16 04:15 | 20.49457 | -156.41740 | 8381 ft | 264 kts | 301° |
| 2026-04-16 04:15 | 20.50662 | -156.43186 | 8101 ft | 261 kts | 322° |
| 2026-04-16 04:16 | 20.51982 | -156.44476 | 7782 ft | 258 kts | 306° |
| 2026-04-16 04:16 | 20.52910 | -156.46163 | 7511 ft | 269 kts | 299° |
| 2026-04-16 04:16 | 20.53797 | -156.47920 | 7225 ft | 273 kts | 299° |
| 2026-04-16 04:16 | 20.54695 | -156.49700 | 6928 ft | 271 kts | 300° |
| 2026-04-16 04:17 | 20.55572 | -156.51463 | 6718 ft | 265 kts | 299° |
| 2026-04-16 04:17 | 20.56429 | -156.53184 | 6552 ft | 257 kts | 300° |
| 2026-04-16 04:17 | 20.57234 | -156.54854 | 6444 ft | 249 kts | 300° |
| 2026-04-16 04:17 | 20.58020 | -156.56492 | 6052 ft | 253 kts | 299° |
| 2026-04-16 04:18 | 20.58833 | -156.58178 | 5683 ft | 256 kts | 299° |
| 2026-04-16 04:18 | 20.59715 | -156.59828 | 5216 ft | 255 kts | 312° |
| 2026-04-16 04:18 | 20.61121 | -156.60927 | 4844 ft | 250 kts | 343° |
| 2026-04-16 04:18 | 20.62797 | -156.61149 | 4674 ft | 237 kts | 3° |
| 2026-04-16 04:19 | 20.64390 | -156.61023 | 4599 ft | 226 kts | 6° |
| 2026-04-16 04:19 | 20.65879 | -156.60647 | 4495 ft | 221 kts | 27° |
| 2026-04-16 04:19 | 20.67183 | -156.59798 | 4398 ft | 214 kts | 33° |
| 2026-04-16 04:19 | 20.68394 | -156.58933 | 4396 ft | 209 kts | 34° |
| 2026-04-16 04:20 | 20.69608 | -156.58040 | 4397 ft | 211 kts | 34° |
| 2026-04-16 04:20 | 20.70818 | -156.57140 | 4220 ft | 213 kts | 35° |
| 2026-04-16 04:20 | 20.72010 | -156.56249 | 3968 ft | 210 kts | 36° |
| 2026-04-16 04:20 | 20.73177 | -156.55379 | 3709 ft | 197 kts | 36° |
| 2026-04-16 04:21 | 20.74254 | -156.54576 | 3494 ft | 182 kts | 34° |
| 2026-04-16 04:21 | 20.75267 | -156.53821 | 3274 ft | 175 kts | 34° |
| 2026-04-16 04:21 | 20.76252 | -156.53085 | 3040 ft | 172 kts | 35° |
| 2026-04-16 04:21 | 20.77270 | -156.52325 | 2784 ft | 182 kts | 35° |
| 2026-04-16 04:22 | 20.78293 | -156.51561 | 2560 ft | 181 kts | 35° |
| 2026-04-16 04:22 | 20.79316 | -156.50797 | 2325 ft | 180 kts | 35° |
| 2026-04-16 04:22 | 20.80333 | -156.50038 | 2075 ft | 175 kts | 35° |
| 2026-04-16 04:22 | 20.81340 | -156.49287 | 1867 ft | 175 kts | 34° |
| 2026-04-16 04:23 | 20.82330 | -156.48547 | 1672 ft | 174 kts | 34° |
| 2026-04-16 04:23 | 20.83354 | -156.47790 | 1448 ft | 182 kts | 33° |
| 2026-04-16 04:23 | 20.84038 | -156.47281 | 1222 ft | 178 kts | 32° |
| 2026-04-16 04:23 | 20.84995 | -156.46543 | 990 ft | 161 kts | 33° |
| 2026-04-16 04:24 | 20.85854 | -156.45874 | 691 ft | 141 kts | 27° |
| 2026-04-16 04:24 | 20.86660 | -156.45319 | 591 ft | 142 kts | 36° |
| 2026-04-16 04:24 | 20.87456 | -156.44661 | 471 ft | 145 kts | 29° |
| 2026-04-16 04:24 | 20.88276 | -156.44104 | 265 ft | 137 kts | 29° |
| 2026-04-16 04:25 | 20.89040 | -156.43536 | 85 ft | 134 kts | 30° |
| 2026-04-16 04:25 | 20.89724 | -156.43038 | 49 ft | 94 kts | 36° |
| 2026-04-16 04:25 | 20.90071 | -156.42777 | 47 ft | 32 kts | 34° |
| 2026-04-16 04:25 | 20.90275 | -156.42631 | 48 ft | 34 kts | 34° |
| 2026-04-16 04:26 | 20.90447 | -156.42507 | 51 ft | 27 kts | 7° |
| 2026-04-16 04:26 | 20.90502 | -156.42571 | 49 ft | 6 kts | 230° |
| 2026-04-16 04:26 | 20.90442 | -156.42650 | 48 ft | 20 kts | 228° |
| 2026-04-16 04:26 | 20.90332 | -156.42738 | 49 ft | 20 kts | 215° |
| 2026-04-16 04:27 | 20.90218 | -156.42820 | 49 ft | 20 kts | 214° |
| 2026-04-16 04:27 | 20.90110 | -156.42901 | 48 ft | 20 kts | 215° |
| 2026-04-16 04:27 | 20.89999 | -156.42984 | 49 ft | 19 kts | 215° |
| 2026-04-16 04:27 | 20.89889 | -156.43068 | 48 ft | 19 kts | 216° |
| 2026-04-16 04:28 | 20.89779 | -156.43152 | 49 ft | 19 kts | 216° |
| 2026-04-16 04:28 | 20.89667 | -156.43233 | 50 ft | 19 kts | 213° |
| 2026-04-16 04:28 | 20.89595 | -156.43345 | 49 ft | 19 kts | 268° |
| 2026-04-16 04:28 | 20.89623 | -156.43423 | 49 ft | 0 kts | 304° |